createdAt,value
2018-03-06T00:00:02.669Z,16.5
2018-03-06T00:01:02.644Z,16.5
2018-03-06T00:02:02.635Z,16.5
2018-03-06T00:03:05.660Z,16.5
2018-03-06T00:04:02.632Z,16.5
2018-03-06T00:05:02.624Z,16.5
2018-03-06T00:06:02.640Z,16.5
2018-03-06T00:07:05.555Z,16.5
2018-03-06T00:08:02.651Z,16.5
2018-03-06T00:09:02.643Z,16.5
2018-03-06T00:10:02.634Z,16.5
2018-03-06T00:11:05.141Z,16.25
2018-03-06T00:12:02.628Z,16.25
2018-03-06T00:13:02.636Z,16.25
2018-03-06T00:14:02.663Z,16.5
2018-03-06T00:15:05.490Z,16.25
2018-03-06T00:16:02.607Z,16.25
2018-03-06T00:17:02.658Z,16.25
2018-03-06T00:18:02.627Z,16.25
2018-03-06T00:19:05.431Z,16.25
2018-03-06T00:20:02.676Z,16.25
2018-03-06T00:21:02.703Z,16.25
2018-03-06T00:22:05.411Z,16.25
2018-03-06T00:23:02.829Z,16.25
2018-03-06T00:24:02.686Z,16.25
2018-03-06T00:25:02.640Z,16.25
2018-03-06T00:26:04.555Z,16.25
2018-03-06T00:27:02.652Z,16.25
2018-03-06T00:28:02.681Z,16.25
2018-03-06T00:29:05.601Z,16.25
2018-03-06T00:30:02.642Z,16.25
2018-03-06T00:31:02.613Z,16.25
2018-03-06T00:32:02.636Z,16.25
2018-03-06T00:33:05.034Z,16.25
2018-03-06T00:34:02.665Z,16.25
2018-03-06T00:35:02.630Z,16.25
2018-03-06T00:36:02.650Z,16.25
2018-03-06T00:37:05.157Z,16.25
2018-03-06T00:38:02.607Z,16.25
2018-03-06T00:39:02.676Z,16.25
2018-03-06T00:40:02.627Z,16.25
2018-03-06T00:41:02.644Z,16.25
2018-03-06T00:42:02.661Z,16.25
2018-03-06T00:43:02.623Z,16.25
2018-03-06T00:44:05.185Z,16.25
2018-03-06T00:45:02.618Z,16.25
2018-03-06T00:46:02.626Z,16.25
2018-03-06T00:47:04.870Z,16.25
2018-03-06T00:48:02.624Z,16.25
2018-03-06T00:49:02.608Z,16.25
2018-03-06T00:50:05.497Z,16.25
2018-03-06T00:51:02.618Z,16.25
2018-03-06T00:52:02.606Z,16.25
2018-03-06T00:53:02.597Z,16.25
2018-03-06T00:54:05.656Z,16.25
2018-03-06T00:55:02.622Z,16.25
2018-03-06T00:56:02.612Z,16.25
2018-03-06T00:57:04.906Z,16.25
2018-03-06T00:58:02.680Z,16.25
2018-03-06T00:59:02.612Z,16.25
2018-03-06T01:00:02.608Z,16.25
2018-03-06T01:01:02.807Z,16.25
2018-03-06T01:02:02.624Z,16.25
2018-03-06T01:03:02.634Z,16.25
2018-03-06T01:04:05.565Z,16.25
2018-03-06T01:05:02.731Z,16.25
2018-03-06T01:06:02.706Z,16.25
2018-03-06T01:07:02.626Z,16.25
2018-03-06T01:08:04.809Z,16.25
2018-03-06T01:09:02.616Z,16.25
2018-03-06T01:10:02.643Z,16.25
2018-03-06T01:11:04.234Z,16.25
2018-03-06T01:12:02.690Z,16.25
2018-03-06T01:13:02.610Z,16.25
2018-03-06T01:14:02.597Z,16.25
2018-03-06T01:15:04.791Z,16.25
2018-03-06T01:16:02.645Z,16.25
2018-03-06T01:17:02.638Z,16.25
2018-03-06T01:18:02.629Z,16.25
2018-03-06T01:19:05.328Z,16.25
2018-03-06T01:20:02.622Z,16.25
2018-03-06T01:21:02.612Z,16.25
2018-03-06T01:22:02.638Z,16.25
2018-03-06T01:23:02.626Z,16
2018-03-06T01:24:02.663Z,16.25
2018-03-06T01:25:02.693Z,16
2018-03-06T01:26:05.284Z,16
2018-03-06T01:27:02.783Z,16
2018-03-06T01:28:02.611Z,16
2018-03-06T01:29:05.057Z,16
2018-03-06T01:30:02.621Z,16.25
2018-03-06T01:31:02.594Z,16
2018-03-06T01:32:03.385Z,16
2018-03-06T01:33:02.620Z,16
2018-03-06T01:34:02.600Z,16
2018-03-06T01:35:02.631Z,16
2018-03-06T01:36:05.099Z,16
2018-03-06T01:37:02.618Z,16
2018-03-06T01:38:02.669Z,16
2018-03-06T01:39:05.432Z,16
2018-03-06T01:40:02.686Z,16
2018-03-06T01:41:02.607Z,16
2018-03-06T01:42:05.655Z,16
2018-03-06T01:43:02.664Z,16
2018-03-06T01:44:02.634Z,16
2018-03-06T01:45:02.711Z,16
2018-03-06T01:46:05.454Z,16
2018-03-06T01:47:02.645Z,16
2018-03-06T01:48:02.961Z,16
2018-03-06T01:49:05.521Z,16
2018-03-06T01:50:02.674Z,16
2018-03-06T01:51:02.630Z,16
2018-03-06T01:52:05.597Z,16
2018-03-06T01:53:02.705Z,16
2018-03-06T01:54:02.579Z,16
2018-03-06T01:55:02.667Z,16
2018-03-06T01:56:02.653Z,16
2018-03-06T01:57:02.617Z,16
2018-03-06T01:58:02.603Z,16
2018-03-06T01:59:05.116Z,16
2018-03-06T02:00:02.935Z,16
2018-03-06T02:01:02.607Z,16
2018-03-06T02:02:02.617Z,16
2018-03-06T02:03:02.597Z,16
2018-03-06T02:04:02.643Z,16
2018-03-06T02:05:02.596Z,16
2018-03-06T02:06:05.288Z,16
2018-03-06T02:07:02.583Z,16
2018-03-06T02:08:02.582Z,16
2018-03-06T02:09:02.605Z,16
2018-03-06T02:10:02.654Z,16
2018-03-06T02:11:02.900Z,16
2018-03-06T02:12:02.570Z,16
2018-03-06T02:13:05.456Z,16
2018-03-06T02:14:02.604Z,16
2018-03-06T02:15:02.598Z,16
2018-03-06T02:16:02.647Z,16
2018-03-06T02:17:04.615Z,16
2018-03-06T02:18:02.587Z,16
2018-03-06T02:19:02.606Z,16
2018-03-06T02:20:02.633Z,16
2018-03-06T02:21:04.666Z,16
2018-03-06T02:22:02.893Z,16
2018-03-06T02:23:02.587Z,16
2018-03-06T02:24:03.885Z,16
2018-03-06T02:25:02.587Z,16
2018-03-06T02:26:02.601Z,16
2018-03-06T02:27:02.597Z,16
2018-03-06T02:28:04.787Z,16
2018-03-06T02:29:02.635Z,16
2018-03-06T02:30:02.611Z,16
2018-03-06T02:31:04.245Z,16
2018-03-06T02:32:02.600Z,16
2018-03-06T02:33:02.605Z,16
2018-03-06T02:34:02.582Z,16
2018-03-06T02:35:02.943Z,16
2018-03-06T02:36:02.582Z,16
2018-03-06T02:37:02.616Z,16
2018-03-06T02:38:02.601Z,16
2018-03-06T02:39:05.361Z,16
2018-03-06T02:40:02.620Z,16
2018-03-06T02:41:02.604Z,16
2018-03-06T02:42:03.682Z,16
2018-03-06T02:43:02.594Z,16
2018-03-06T02:44:02.610Z,16
2018-03-06T02:45:02.576Z,16
2018-03-06T02:46:04.409Z,16
2018-03-06T02:47:02.630Z,16
2018-03-06T02:48:02.571Z,16
2018-03-06T02:49:02.578Z,16
2018-03-06T02:50:05.178Z,16
2018-03-06T02:51:02.586Z,16
2018-03-06T02:52:02.571Z,16
2018-03-06T02:53:05.228Z,15.75
2018-03-06T02:54:02.597Z,16
2018-03-06T02:55:02.611Z,15.75
2018-03-06T02:56:02.553Z,15.75
2018-03-06T02:57:05.103Z,15.75
2018-03-06T02:58:02.596Z,16
2018-03-06T02:59:02.573Z,15.75
2018-03-06T03:00:05.580Z,15.75
2018-03-06T03:01:02.573Z,15.75
2018-03-06T03:02:02.585Z,15.75
2018-03-06T03:03:02.581Z,15.75
2018-03-06T03:04:05.528Z,15.75
2018-03-06T03:05:02.585Z,15.75
2018-03-06T03:06:02.603Z,15.75
2018-03-06T03:07:02.610Z,15.75
2018-03-06T03:08:04.827Z,15.75
2018-03-06T03:09:02.552Z,15.75
2018-03-06T03:10:02.597Z,15.75
2018-03-06T03:11:04.387Z,15.75
2018-03-06T03:12:02.566Z,15.75
2018-03-06T03:13:02.581Z,15.75
2018-03-06T03:14:02.557Z,15.75
2018-03-06T03:15:05.407Z,15.75
2018-03-06T03:16:02.611Z,15.75
2018-03-06T03:17:02.566Z,15.75
2018-03-06T03:18:02.559Z,15.75
2018-03-06T03:19:04.424Z,15.75
2018-03-06T03:20:02.567Z,15.75
2018-03-06T03:21:02.569Z,15.75
2018-03-06T03:22:02.604Z,15.75
2018-03-06T03:23:04.883Z,15.75
2018-03-06T03:24:02.566Z,15.75
2018-03-06T03:25:02.584Z,15.75
2018-03-06T03:26:04.929Z,15.75
2018-03-06T03:27:02.861Z,15.75
2018-03-06T03:28:02.586Z,15.75
2018-03-06T03:29:04.027Z,15.75
2018-03-06T03:30:02.577Z,15.75
2018-03-06T03:31:02.602Z,15.75
2018-03-06T03:32:05.681Z,15.75
2018-03-06T03:33:02.618Z,15.75
2018-03-06T03:34:02.550Z,15.75
2018-03-06T03:35:05.457Z,15.75
2018-03-06T03:36:02.573Z,15.75
2018-03-06T03:37:02.556Z,15.75
2018-03-06T03:38:02.596Z,15.75
2018-03-06T03:39:02.597Z,15.75
2018-03-06T03:40:02.612Z,15.75
2018-03-06T03:41:02.634Z,15.75
2018-03-06T03:42:05.206Z,15.75
2018-03-06T03:43:02.608Z,15.75
2018-03-06T03:44:02.565Z,15.75
2018-03-06T03:45:05.419Z,15.75
2018-03-06T03:46:02.575Z,15.75
2018-03-06T03:47:02.571Z,15.75
2018-03-06T03:48:04.493Z,15.75
2018-03-06T03:49:02.577Z,15.75
2018-03-06T03:50:02.552Z,15.75
2018-03-06T03:51:05.361Z,15.75
2018-03-06T03:52:02.598Z,15.75
2018-03-06T03:53:02.622Z,15.75
2018-03-06T03:54:03.720Z,15.75
2018-03-06T03:55:02.612Z,15.75
2018-03-06T03:56:02.626Z,15.75
2018-03-06T03:57:02.594Z,15.75
2018-03-06T03:58:05.347Z,15.75
2018-03-06T03:59:02.538Z,15.75
2018-03-06T04:00:02.594Z,15.75
2018-03-06T04:01:03.466Z,15.75
2018-03-06T04:02:02.603Z,15.75
2018-03-06T04:03:02.646Z,15.75
2018-03-06T04:04:02.586Z,15.75
2018-03-06T04:05:02.636Z,15.75
2018-03-06T04:06:02.552Z,15.75
2018-03-06T04:07:04.536Z,15.75
2018-03-06T04:08:02.585Z,15.75
2018-03-06T04:09:02.556Z,15.75
2018-03-06T04:10:05.146Z,15.75
2018-03-06T04:11:02.566Z,15.75
2018-03-06T04:12:02.602Z,15.75
2018-03-06T04:13:02.558Z,15.75
2018-03-06T04:14:02.568Z,15.75
2018-03-06T04:15:02.537Z,15.75
2018-03-06T04:16:02.594Z,15.75
2018-03-06T04:17:04.835Z,15.75
2018-03-06T04:18:02.541Z,15.75
2018-03-06T04:19:02.554Z,15.75
2018-03-06T04:20:05.459Z,15.75
2018-03-06T04:21:02.540Z,15.75
2018-03-06T04:22:02.543Z,15.75
2018-03-06T04:23:05.525Z,15.75
2018-03-06T04:24:02.592Z,15.75
2018-03-06T04:25:02.973Z,15.75
2018-03-06T04:26:02.551Z,15.75
2018-03-06T04:27:04.893Z,15.75
2018-03-06T04:28:02.536Z,15.75
2018-03-06T04:29:02.533Z,15.75
2018-03-06T04:30:02.554Z,15.75
2018-03-06T04:31:02.567Z,15.75
2018-03-06T04:32:02.570Z,15.75
2018-03-06T04:33:02.572Z,15.75
2018-03-06T04:34:05.462Z,15.75
2018-03-06T04:35:02.561Z,15.75
2018-03-06T04:36:02.549Z,15.75
2018-03-06T04:37:04.774Z,15.75
2018-03-06T04:38:02.659Z,15.75
2018-03-06T04:39:02.547Z,15.75
2018-03-06T04:40:05.604Z,15.75
2018-03-06T04:41:02.568Z,15.75
2018-03-06T04:42:02.624Z,15.75
2018-03-06T04:43:02.570Z,15.75
2018-03-06T04:44:04.624Z,15.75
2018-03-06T04:45:02.538Z,15.5
2018-03-06T04:46:02.583Z,15.5
2018-03-06T04:47:02.555Z,15.75
2018-03-06T04:48:04.945Z,15.5
2018-03-06T04:49:02.604Z,15.5
2018-03-06T04:50:02.574Z,15.75
2018-03-06T04:51:04.184Z,15.5
2018-03-06T04:52:02.592Z,15.75
2018-03-06T04:53:02.826Z,15.75
2018-03-06T04:54:02.584Z,15.5
2018-03-06T04:55:02.555Z,15.75
2018-03-06T04:56:02.536Z,15.75
2018-03-06T04:57:02.531Z,15.75
2018-03-06T04:58:05.118Z,15.75
2018-03-06T04:59:02.568Z,15.75
2018-03-06T05:00:02.559Z,15.75
2018-03-06T05:01:02.624Z,15.75
2018-03-06T05:02:05.412Z,15.75
2018-03-06T05:03:02.652Z,15.75
2018-03-06T05:04:02.564Z,15.75
2018-03-06T05:05:02.630Z,15.75
2018-03-06T05:06:04.808Z,15.75
2018-03-06T05:07:02.598Z,15.75
2018-03-06T05:08:02.563Z,15.75
2018-03-06T05:09:03.370Z,15.75
2018-03-06T05:10:02.521Z,15.75
2018-03-06T05:11:02.777Z,15.75
2018-03-06T05:12:02.561Z,15.75
2018-03-06T05:13:02.529Z,15.75
2018-03-06T05:14:02.570Z,15.75
2018-03-06T05:15:04.648Z,16
2018-03-06T05:16:02.556Z,16
2018-03-06T05:17:02.575Z,16
2018-03-06T05:18:02.553Z,16
2018-03-06T05:19:05.297Z,16
2018-03-06T05:20:02.529Z,16
2018-03-06T05:21:02.520Z,16
2018-03-06T05:22:02.533Z,16
2018-03-06T05:23:05.293Z,16
2018-03-06T05:24:02.551Z,16
2018-03-06T05:25:02.544Z,16
2018-03-06T05:26:02.535Z,16
2018-03-06T05:27:05.240Z,16
2018-03-06T05:28:02.513Z,16
2018-03-06T05:29:02.558Z,16.25
2018-03-06T05:30:02.569Z,16.25
2018-03-06T05:31:05.442Z,16.25
2018-03-06T05:32:02.582Z,16.25
2018-03-06T05:33:02.542Z,16.25
2018-03-06T05:34:05.376Z,16.25
2018-03-06T05:35:02.578Z,16.25
2018-03-06T05:36:02.529Z,16.25
2018-03-06T05:37:02.554Z,16.25
2018-03-06T05:38:05.076Z,16.25
2018-03-06T05:39:02.786Z,16.25
2018-03-06T05:40:02.849Z,16.25
2018-03-06T05:41:02.582Z,16.25
2018-03-06T05:42:05.853Z,16.25
2018-03-06T05:43:02.557Z,16.25
2018-03-06T05:44:02.575Z,16.25
2018-03-06T05:45:02.576Z,16.5
2018-03-06T05:46:05.544Z,16.5
2018-03-06T05:47:02.524Z,16.5
2018-03-06T05:48:02.533Z,16.5
2018-03-06T05:49:02.593Z,16.5
2018-03-06T05:50:05.283Z,16.5
2018-03-06T05:51:02.534Z,16.5
2018-03-06T05:52:02.521Z,16.5
2018-03-06T05:53:05.256Z,16.5
2018-03-06T05:54:02.563Z,16.5
2018-03-06T05:55:02.676Z,16.5
2018-03-06T05:56:02.543Z,16.5
2018-03-06T05:57:05.765Z,16.5
2018-03-06T05:58:02.518Z,16.5
2018-03-06T05:59:02.584Z,16.5
2018-03-06T06:00:02.561Z,16.5
2018-03-06T06:01:04.960Z,16.5
2018-03-06T06:02:02.597Z,16.5
2018-03-06T06:03:02.522Z,16.5
2018-03-06T06:04:05.212Z,16.5
2018-03-06T06:05:02.607Z,16.5
2018-03-06T06:06:02.525Z,16.5
2018-03-06T06:07:02.524Z,16.5
2018-03-06T06:08:02.646Z,16.5
2018-03-06T06:09:02.660Z,16.5
2018-03-06T06:10:05.036Z,16.75
2018-03-06T06:11:02.550Z,16.5
2018-03-06T06:12:02.522Z,16.75
2018-03-06T06:13:05.608Z,16.75
2018-03-06T06:14:02.655Z,16.75
2018-03-06T06:15:02.458Z,16.75
2018-03-06T06:16:02.454Z,16.75
2018-03-06T06:17:02.470Z,16.75
2018-03-06T06:18:02.493Z,16.75
2018-03-06T06:19:02.463Z,16.75
2018-03-06T06:20:02.498Z,16.75
2018-03-06T06:21:02.486Z,16.75
2018-03-06T06:22:02.469Z,16.75
2018-03-06T06:23:02.461Z,16.75
2018-03-06T06:24:02.448Z,16.75
2018-03-06T06:25:02.493Z,16.75
2018-03-06T06:26:02.475Z,16.75
2018-03-06T06:27:02.924Z,16.75
2018-03-06T06:28:02.797Z,16.75
2018-03-06T06:29:02.448Z,16.75
2018-03-06T06:30:02.498Z,16.75
2018-03-06T06:31:02.476Z,16.75
2018-03-06T06:32:02.471Z,16.75
2018-03-06T06:33:02.489Z,16.75
2018-03-06T06:34:02.455Z,16.75
2018-03-06T06:35:02.461Z,16.75
2018-03-06T06:36:02.465Z,17
2018-03-06T06:37:02.458Z,17
2018-03-06T06:38:02.731Z,17
2018-03-06T06:39:02.476Z,17
2018-03-06T06:40:02.605Z,17
2018-03-06T06:41:02.504Z,17
2018-03-06T06:42:02.564Z,17
2018-03-06T06:43:02.534Z,17
2018-03-06T06:44:02.496Z,17
2018-03-06T06:45:02.479Z,17
2018-03-06T06:46:02.451Z,17
2018-03-06T06:47:02.546Z,17
2018-03-06T06:48:02.467Z,17
2018-03-06T06:49:02.541Z,17
2018-03-06T06:50:02.515Z,17
2018-03-06T06:51:02.463Z,17
2018-03-06T06:52:02.496Z,17
2018-03-06T06:53:02.459Z,17
2018-03-06T06:54:02.451Z,17
2018-03-06T06:55:02.474Z,17
2018-03-06T06:56:02.449Z,17
2018-03-06T06:57:02.465Z,17
2018-03-06T06:58:02.479Z,17
2018-03-06T06:59:02.445Z,17
2018-03-06T07:00:02.434Z,17
2018-03-06T07:01:02.476Z,17
2018-03-06T07:02:02.443Z,17
2018-03-06T07:03:02.468Z,17
2018-03-06T07:04:02.455Z,17
2018-03-06T07:05:02.449Z,17
2018-03-06T07:06:02.517Z,17
2018-03-06T07:07:02.449Z,17.25
2018-03-06T07:08:02.440Z,17.25
2018-03-06T07:09:02.453Z,17
2018-03-06T07:10:02.444Z,17.25
2018-03-06T07:11:02.487Z,17.25
2018-03-06T07:12:02.435Z,17.25
2018-03-06T07:13:02.443Z,17.25
2018-03-06T07:14:02.440Z,17.25
2018-03-06T07:15:02.455Z,17.25
2018-03-06T07:16:02.438Z,17.25
2018-03-06T07:17:02.715Z,17.25
2018-03-06T07:18:02.518Z,17.25
2018-03-06T07:19:02.449Z,17.25
2018-03-06T07:20:02.461Z,17.25
2018-03-06T07:21:02.438Z,17.25
2018-03-06T07:22:02.744Z,17.25
2018-03-06T07:23:02.418Z,17.25
2018-03-06T07:24:02.456Z,17.25
2018-03-06T07:25:02.437Z,17.25
2018-03-06T07:26:02.457Z,17.25
2018-03-06T07:27:02.717Z,17.25
2018-03-06T07:28:02.437Z,17.25
2018-03-06T07:29:02.439Z,17.25
2018-03-06T07:30:02.436Z,17.25
2018-03-06T07:31:02.436Z,17.25
2018-03-06T07:32:02.477Z,17.25
2018-03-06T07:33:02.518Z,17.25
2018-03-06T07:34:02.460Z,17.25
2018-03-06T07:35:02.447Z,17.25
2018-03-06T07:36:02.430Z,17.25
2018-03-06T07:37:02.474Z,17.25
2018-03-06T07:38:02.490Z,17.25
2018-03-06T07:39:02.438Z,17.25
2018-03-06T07:40:02.444Z,17.25
2018-03-06T07:41:02.499Z,17.25
2018-03-06T07:42:02.503Z,17.25
2018-03-06T07:43:02.435Z,17.25
2018-03-06T07:44:02.433Z,17.25
2018-03-06T07:45:02.433Z,17.25
2018-03-06T07:46:02.420Z,17.25
2018-03-06T07:47:02.471Z,17.25
2018-03-06T07:48:02.432Z,17.25
2018-03-06T07:49:02.436Z,17.25
2018-03-06T07:50:02.423Z,17.25
2018-03-06T07:51:02.430Z,17.25
2018-03-06T07:52:02.444Z,17.25
2018-03-06T07:53:02.428Z,17.25
2018-03-06T07:54:02.441Z,17.25
2018-03-06T07:55:02.475Z,17.25
2018-03-06T07:56:02.518Z,17.25
2018-03-06T07:57:02.466Z,17.25
2018-03-06T07:58:02.426Z,17.25
2018-03-06T07:59:02.497Z,17.5
2018-03-06T08:00:02.446Z,17.5
2018-03-06T08:01:02.455Z,17.25
2018-03-06T08:02:02.426Z,17.25
2018-03-06T08:03:02.430Z,17.5
2018-03-06T08:04:02.455Z,17.5
2018-03-06T08:05:02.433Z,17.5
2018-03-06T08:06:02.431Z,17.5
2018-03-06T08:07:02.437Z,17.5
2018-03-06T08:08:02.472Z,17.5
2018-03-06T08:09:02.463Z,17.5
2018-03-06T08:10:02.437Z,17.5
2018-03-06T08:11:02.424Z,17.5
2018-03-06T08:12:02.676Z,17.5
2018-03-06T08:13:02.424Z,17.5
2018-03-06T08:14:02.464Z,17.5
2018-03-06T08:15:02.426Z,17.5
2018-03-06T08:16:02.422Z,17.5
2018-03-06T08:17:02.444Z,17.5
2018-03-06T08:18:02.430Z,17.5
2018-03-06T08:19:02.409Z,17.5
2018-03-06T08:20:02.407Z,17.5
2018-03-06T08:21:02.423Z,17.5
2018-03-06T08:22:02.420Z,17.5
2018-03-06T08:23:02.434Z,17.5
2018-03-06T08:24:02.424Z,17.5
2018-03-06T08:25:02.419Z,17.5
2018-03-06T08:26:02.438Z,17.5
2018-03-06T08:27:02.421Z,17.5
2018-03-06T08:28:02.410Z,17.5
2018-03-06T08:29:02.405Z,17.5
2018-03-06T08:30:02.420Z,17.5
2018-03-06T08:31:02.399Z,17.5
2018-03-06T08:32:02.423Z,17.5
2018-03-06T08:33:02.390Z,17.5
2018-03-06T08:34:02.396Z,17.5
2018-03-06T08:35:02.413Z,17.5
2018-03-06T08:36:02.441Z,17.5
2018-03-06T08:37:02.398Z,17.5
2018-03-06T08:38:02.434Z,17.5
2018-03-06T08:39:02.402Z,17.5
2018-03-06T08:40:02.405Z,17.5
2018-03-06T08:41:02.501Z,17.5
2018-03-06T08:42:02.397Z,17.5
2018-03-06T08:43:02.432Z,17.5
2018-03-06T08:44:02.396Z,17.5
2018-03-06T08:45:02.416Z,17.5
2018-03-06T08:46:02.432Z,17.5
2018-03-06T08:47:02.431Z,17.5
2018-03-06T08:48:02.444Z,17.5
2018-03-06T08:49:02.428Z,17.5
2018-03-06T08:50:02.394Z,17.5
2018-03-06T08:51:02.424Z,17.5
2018-03-06T08:52:02.406Z,17.5
2018-03-06T08:53:02.406Z,17.5
2018-03-06T08:54:02.406Z,17.5
2018-03-06T08:55:02.396Z,17.5
2018-03-06T08:56:02.402Z,17.5
2018-03-06T08:57:02.456Z,17.75
2018-03-06T08:58:02.400Z,17.5
2018-03-06T08:59:02.407Z,17.5
2018-03-06T09:00:02.403Z,17.75
2018-03-06T09:01:02.408Z,17.5
2018-03-06T09:02:02.424Z,17.5
2018-03-06T09:03:02.447Z,17.75
2018-03-06T09:04:02.421Z,17.75
2018-03-06T09:05:02.392Z,17.5
2018-03-06T09:06:02.406Z,17.5
2018-03-06T09:07:02.429Z,17.75
2018-03-06T09:08:02.397Z,17.75
2018-03-06T09:09:02.390Z,17.5
2018-03-06T09:10:02.401Z,17.5
2018-03-06T09:11:02.385Z,17.5
2018-03-06T09:12:02.668Z,17.5
2018-03-06T09:13:02.394Z,17.5
2018-03-06T09:14:02.400Z,17.5
2018-03-06T09:15:02.395Z,17.5
2018-03-06T09:16:02.402Z,17.5
2018-03-06T09:17:02.419Z,17.75
2018-03-06T09:18:02.422Z,17.5
2018-03-06T09:19:02.396Z,17.5
2018-03-06T09:20:02.401Z,17.5
2018-03-06T09:21:02.389Z,17.5
2018-03-06T09:22:02.469Z,17.5
2018-03-06T09:23:02.379Z,17.5
2018-03-06T09:24:02.394Z,17.5
2018-03-06T09:25:02.402Z,17.5
2018-03-06T09:26:02.398Z,17.5
2018-03-06T09:27:02.383Z,17.5
2018-03-06T09:28:02.391Z,17.5
2018-03-06T09:29:02.406Z,17.5
2018-03-06T09:30:02.395Z,17.5
2018-03-06T09:31:02.399Z,17.5
2018-03-06T09:32:02.393Z,17.5
2018-03-06T09:33:02.396Z,17.5
2018-03-06T09:34:02.420Z,17.75
2018-03-06T09:35:02.378Z,17.75
2018-03-06T09:36:02.392Z,17.5
2018-03-06T09:37:02.392Z,17.75
2018-03-06T09:38:02.393Z,17.75
2018-03-06T09:39:02.396Z,17.75
2018-03-06T09:40:02.392Z,17.75
2018-03-06T09:41:02.374Z,17.75
2018-03-06T09:42:02.382Z,17.75
2018-03-06T09:43:02.448Z,17.75
2018-03-06T09:44:02.392Z,17.75
2018-03-06T09:45:02.378Z,17.75
2018-03-06T09:46:02.401Z,17.75
2018-03-06T09:47:02.526Z,17.75
2018-03-06T09:48:02.381Z,17.75
2018-03-06T09:49:02.382Z,17.75
2018-03-06T09:50:02.448Z,17.75
2018-03-06T09:51:02.365Z,17.75
2018-03-06T09:52:02.383Z,17.75
2018-03-06T09:53:02.401Z,17.75
2018-03-06T09:54:02.370Z,17.75
2018-03-06T09:55:02.381Z,17.75
2018-03-06T09:56:02.491Z,17.75
2018-03-06T09:57:02.506Z,17.75
2018-03-06T09:58:02.389Z,17.75
2018-03-06T09:59:02.370Z,17.75
2018-03-06T10:00:02.389Z,17.75
2018-03-06T10:01:02.378Z,17.75
2018-03-06T10:02:02.384Z,17.75
2018-03-06T10:03:02.692Z,17.75
2018-03-06T10:04:02.376Z,17.75
2018-03-06T10:05:02.409Z,17.75
2018-03-06T10:06:02.386Z,17.75
2018-03-06T10:07:02.385Z,17.75
2018-03-06T10:08:02.381Z,17.75
2018-03-06T10:09:02.628Z,17.75
2018-03-06T10:10:02.397Z,17.75
2018-03-06T10:11:02.382Z,17.75
2018-03-06T10:12:02.367Z,17.75
2018-03-06T10:13:02.368Z,17.75
2018-03-06T10:14:02.410Z,17.75
2018-03-06T10:15:02.387Z,17.75
2018-03-06T10:16:02.375Z,17.75
2018-03-06T10:17:02.372Z,17.75
2018-03-06T10:18:02.394Z,17.75
2018-03-06T10:19:02.438Z,17.75
2018-03-06T10:20:02.399Z,17.75
2018-03-06T10:21:02.384Z,17.75
2018-03-06T10:22:02.419Z,17.75
2018-03-06T10:23:02.375Z,17.75
2018-03-06T10:24:02.339Z,17.75
2018-03-06T10:25:02.361Z,17.75
2018-03-06T10:26:02.412Z,17.75
2018-03-06T10:27:02.360Z,17.75
2018-03-06T10:28:02.465Z,17.75
2018-03-06T10:29:02.377Z,17.75
2018-03-06T10:30:02.336Z,17.75
2018-03-06T10:31:02.366Z,17.75
2018-03-06T10:32:02.421Z,17.75
2018-03-06T10:33:02.382Z,17.75
2018-03-06T10:34:02.651Z,17.75
2018-03-06T10:35:02.505Z,17.75
2018-03-06T10:36:02.368Z,17.75
2018-03-06T10:37:02.363Z,17.75
2018-03-06T10:38:02.356Z,17.75
2018-03-06T10:39:02.366Z,17.75
2018-03-06T10:40:02.425Z,17.75
2018-03-06T10:41:02.378Z,17.75
2018-03-06T10:42:02.367Z,17.75
2018-03-06T10:43:02.363Z,17.75
2018-03-06T10:44:02.365Z,17.75
2018-03-06T10:45:02.377Z,17.75
2018-03-06T10:46:02.340Z,17.75
2018-03-06T10:47:02.521Z,17.75
2018-03-06T10:48:02.373Z,17.75
2018-03-06T10:49:02.397Z,17.75
2018-03-06T10:50:02.379Z,17.75
2018-03-06T10:51:02.364Z,17.75
2018-03-06T10:52:02.415Z,17.75
2018-03-06T10:53:02.372Z,17.75
2018-03-06T10:54:02.385Z,17.75
2018-03-06T10:55:02.373Z,17.75
2018-03-06T10:56:02.382Z,17.75
2018-03-06T10:57:02.359Z,17.75
2018-03-06T10:58:02.371Z,18
2018-03-06T10:59:02.383Z,18
2018-03-06T11:00:02.384Z,18
2018-03-06T11:01:02.368Z,17.75
2018-03-06T11:02:02.374Z,18
2018-03-06T11:03:02.363Z,18
2018-03-06T11:04:02.393Z,18
2018-03-06T11:05:02.389Z,18
2018-03-06T11:06:02.344Z,18
2018-03-06T11:07:02.363Z,17.75
2018-03-06T11:08:02.345Z,17.75
2018-03-06T11:09:02.369Z,18
2018-03-06T11:10:02.391Z,17.75
2018-03-06T11:11:02.357Z,18
2018-03-06T11:12:02.359Z,17.75
2018-03-06T11:13:02.375Z,18
2018-03-06T11:14:02.345Z,18
2018-03-06T11:15:02.397Z,18
2018-03-06T11:16:02.382Z,17.75
2018-03-06T11:17:02.352Z,17.75
2018-03-06T11:18:02.357Z,17.75
2018-03-06T11:19:02.382Z,17.75
2018-03-06T11:20:02.371Z,17.75
2018-03-06T11:21:02.402Z,17.75
2018-03-06T11:22:02.361Z,17.75
2018-03-06T11:23:02.350Z,17.75
2018-03-06T11:24:02.353Z,17.75
2018-03-06T11:25:02.391Z,17.75
2018-03-06T11:26:02.387Z,17.75
2018-03-06T11:27:02.337Z,17.75
2018-03-06T11:28:02.641Z,17.75
2018-03-06T11:29:02.363Z,17.75
2018-03-06T11:30:02.385Z,17.75
2018-03-06T11:31:02.382Z,17.75
2018-03-06T11:32:02.357Z,17.75
2018-03-06T11:33:02.402Z,17.75
2018-03-06T11:34:02.349Z,17.75
2018-03-06T11:35:02.336Z,17.75
2018-03-06T11:36:02.567Z,17.75
2018-03-06T11:37:02.369Z,17.75
2018-03-06T11:38:02.348Z,17.75
2018-03-06T11:39:02.352Z,17.75
2018-03-06T11:40:02.343Z,17.75
2018-03-06T11:41:02.358Z,17.75
2018-03-06T11:42:02.352Z,17.75
2018-03-06T11:43:02.394Z,17.75
2018-03-06T11:44:02.398Z,17.75
2018-03-06T11:45:02.347Z,17.75
2018-03-06T11:46:02.352Z,17.75
2018-03-06T11:47:02.329Z,17.75
2018-03-06T11:48:02.653Z,17.75
2018-03-06T11:49:02.352Z,17.75
2018-03-06T11:50:02.912Z,17.75
2018-03-06T11:51:02.352Z,17.75
2018-03-06T11:52:02.332Z,17.75
2018-03-06T11:53:02.394Z,17.75
2018-03-06T11:54:02.365Z,17.75
2018-03-06T11:55:02.315Z,17.75
2018-03-06T11:56:02.345Z,18
2018-03-06T11:57:02.392Z,18
2018-03-06T11:58:02.476Z,17.75
2018-03-06T11:59:02.364Z,18
2018-03-06T12:00:02.358Z,18
2018-03-06T12:01:02.325Z,18
2018-03-06T12:02:02.480Z,18
2018-03-06T12:03:02.391Z,18
2018-03-06T12:04:02.342Z,18
2018-03-06T12:05:02.322Z,18
2018-03-06T12:06:02.335Z,18
2018-03-06T12:07:02.356Z,18
2018-03-06T12:08:02.360Z,18
2018-03-06T12:09:02.350Z,18
2018-03-06T12:10:02.548Z,18
2018-03-06T12:11:02.344Z,18
2018-03-06T12:12:02.352Z,18
2018-03-06T12:13:02.375Z,18
2018-03-06T12:14:02.356Z,18
2018-03-06T12:15:02.337Z,18
2018-03-06T12:16:02.324Z,18
2018-03-06T12:17:02.330Z,18
2018-03-06T12:18:02.604Z,18
2018-03-06T12:19:02.330Z,18
2018-03-06T12:20:02.344Z,18
2018-03-06T12:21:02.357Z,18
2018-03-06T12:22:02.322Z,18
2018-03-06T12:23:02.364Z,18
2018-03-06T12:24:02.351Z,18
2018-03-06T12:25:02.336Z,18
2018-03-06T12:26:02.350Z,18
2018-03-06T12:27:02.337Z,18
2018-03-06T12:28:02.330Z,18
2018-03-06T12:29:02.329Z,18
2018-03-06T12:30:02.498Z,18
2018-03-06T12:31:02.360Z,18
2018-03-06T12:32:02.351Z,18
2018-03-06T12:33:02.334Z,18
2018-03-06T12:34:02.356Z,17.75
2018-03-06T12:35:02.382Z,18
2018-03-06T12:36:02.330Z,18
2018-03-06T12:37:02.330Z,17.75
2018-03-06T12:38:02.318Z,18
2018-03-06T12:39:02.327Z,18
2018-03-06T12:40:02.341Z,18
2018-03-06T12:41:02.328Z,18
2018-03-06T12:42:02.333Z,18
2018-03-06T12:43:02.314Z,18
2018-03-06T12:44:02.370Z,18
2018-03-06T12:45:03.550Z,18
2018-03-06T12:46:02.338Z,18
2018-03-06T12:47:02.337Z,18
2018-03-06T12:48:02.352Z,18
2018-03-06T12:49:02.352Z,18
2018-03-06T12:50:02.335Z,18
2018-03-06T12:51:02.307Z,18
2018-03-06T12:52:02.336Z,18
2018-03-06T12:53:02.330Z,18
2018-03-06T12:54:02.352Z,18
2018-03-06T12:55:02.323Z,18
2018-03-06T12:56:02.318Z,18
2018-03-06T12:57:02.321Z,18
2018-03-06T12:58:02.361Z,18
2018-03-06T12:59:02.340Z,18
2018-03-06T13:00:02.335Z,18
2018-03-06T13:01:02.329Z,18
2018-03-06T13:02:02.334Z,18
2018-03-06T13:03:02.333Z,18
2018-03-06T13:04:02.371Z,18
2018-03-06T13:05:02.325Z,18
2018-03-06T13:06:02.360Z,18
2018-03-06T13:07:02.320Z,18
2018-03-06T13:08:02.308Z,18
2018-03-06T13:09:02.349Z,18
2018-03-06T13:10:02.304Z,18
2018-03-06T13:11:02.313Z,18
2018-03-06T13:12:02.307Z,18
2018-03-06T13:13:02.347Z,18
2018-03-06T13:14:02.346Z,18
2018-03-06T13:15:02.326Z,18
2018-03-06T13:16:02.322Z,18
2018-03-06T13:17:02.312Z,18
2018-03-06T13:18:02.318Z,18
2018-03-06T13:19:02.353Z,18